MST,Max TemperatureF,Mean TemperatureF,Min TemperatureF,Max Dew PointF,MeanDew PointF,Min DewpointF,Max Humidity, Mean Humidity, Min Humidity, Max Sea Level PressureIn, Mean Sea Level PressureIn, Min Sea Level PressureIn, Max VisibilityMiles, Mean VisibilityMiles, Min VisibilityMiles, Max Wind SpeedMPH, Mean Wind SpeedMPH, Max Gust SpeedMPH,PrecipitationIn, CloudCover, Events, WindDirDegrees
2012-11-1,95,82,69,71,59,39,94,53,15,30.01,29.93,29.85,19,11,2,13,4,,0.00,0,,212
2012-11-2,92,80,67,69,58,34,94,53,15,30.04,29.93,29.85,19,11,2,12,4,,0.00,1,,265
2012-11-3,89,78,68,72,66,59,94,67,48,30.06,29.94,29.87,19,11,2,16,5,,0.00,2,,328
2012-11-4,88,78,68,73,66,61,94,66,43,30.09,29.96,29.90,19,11,2,16,6,,0.00,3,,11
2012-11-5,89,78,67,72,64,57,92,62,32,30.06,29.97,29.90,19,10,2,15,4,,0.00,3,,359
2012-11-6,91,78,66,70,63,54,83,58,37,30.08,29.97,29.89,19,10,2,16,4,,0.00,1,,354
2012-11-7,89,77,65,69,62,57,88,58,34,30.04,29.94,29.86,19,10,2,12,4,,0.00,4,,283
2012-11-8,97,82,66,66,57,43,88,48,17,30.01,29.92,29.82,19,11,2,12,4,,0.00,0,,187
2012-11-9,96,84,72,71,60,46,88,51,16,30.03,29.91,29.82,19,12,2,9,4,,0.00,1,,206
2012-11-10,87,77,67,67,59,52,88,55,35,30.11,29.97,29.88,19,11,2,15,6,,0.00,3,,352
2012-11-11,82,70,57,58,55,52,82,54,36,30.19,30.04,29.99,19,10,2,21,8,,0.00,2,,21
2012-11-12,81,74,66,60,56,50,77,54,36,30.14,30.04,29.93,19,10,2,18,7,,0.00,5,,9
2012-11-13,84,73,62,63,59,54,88,63,39,30.12,30.01,29.92,19,10,2,17,5,,0.00,3,,10
2012-11-14,84,72,60,65,60,50,94,66,36,30.12,30.03,29.94,19,10,2,13,4,,0.00,2,,249
2012-11-15,83,71,59,68,63,55,88,71,51,30.12,30.03,29.97,19,10,2,14,3,,0.00,4,,349
2012-11-16,87,76,64,67,59,46,88,57,25,30.10,29.99,29.93,19,11,2,12,4,,0.00,3,,356
2012-11-17,90,76,62,61,54,45,83,48,23,30.13,30.01,29.94,19,11,2,10,3,,0.00,4,,185
2012-11-18,88,76,64,65,59,48,88,59,29,30.17,30.05,29.99,19,11,2,14,4,,0.00,5,,5
2012-11-19,86,75,64,66,62,55,88,62,38,30.14,30.05,29.99,19,10,2,15,4,,0.00,5,,6
2012-11-20,85,74,64,65,63,59,83,63,43,30.09,29.99,29.91,19,10,2,16,5,,0.00,6,,3
2012-11-21,88,76,65,67,60,48,83,57,39,30.09,29.99,29.90,19,11,2,14,3,,0.00,1,,297
2012-11-22,88,74,60,71,60,43,94,63,23,30.09,30.01,29.96,19,10,2,9,3,,0.00,4,,313
2012-11-23,84,72,61,68,61,52,94,69,45,30.14,30.03,29.96,19,11,2,14,4,,0.00,0,,353
2012-11-24,87,74,62,66,61,54,94,67,23,30.09,29.98,29.88,19,10,2,12,4,,0.00,0,,334
2012-11-25,93,78,62,63,50,34,78,43,9,30.06,29.94,29.83,19,11,2,9,4,,0.00,1,,187
2012-11-26,91,78,64,63,55,41,88,54,18,30.15,30.01,29.92,19,11,2,13,6,,0.00,1,,222
2012-11-27,86,74,62,68,63,54,88,69,36,30.22,30.07,30.00,19,10,2,14,5,,0.00,1,,303
2012-11-28,88,74,60,67,56,43,88,55,15,30.19,30.10,30.02,19,11,2,12,4,,0.00,2,,281
2012-11-29,84,72,59,63,59,50,88,63,41,30.15,30.06,29.99,19,11,2,14,5,,0.00,4,,5
2012-11-30,84,72,59,63,58,48,88,62,39,30.14,30.02,29.96,19,10,2,14,5,,0.00,2,,358